www.bettendroffer.lu
Wetterdaten: vendredi, 22.04.2011
Datum Zeit Temp. 1 ext. Temp. 3 Feuchte 1 Feuchte 3 Luftdruck Regen Wind Richtung Richtung Taupunkt Windchill
22.04.2011 00:11 11,0 C 10,4 C 20 % 41 % 1007 hPa 0,0 l/m 0,0 km/h (0 Bft) O-SO 120 -11,1 C 11,0 C
22.04.2011 00:41 10,4 C 9,8 C 20 % 46 % 1007 hPa 0,0 l/m 0,0 km/h (0 Bft) O-SO 120 -11,6 C 10,4 C
22.04.2011 01:11 10,0 C 9,2 C 21 % 46 % 1007 hPa 0,0 l/m 0,0 km/h (0 Bft) O-SO 120 -11,3 C 10,0 C
22.04.2011 01:41 9,4 C 8,6 C 26 % 51 % 1007 hPa 0,0 l/m 0,0 km/h (0 Bft) O-NO 70 -9,1 C 9,4 C
22.04.2011 02:11 9,6 C 9,3 C 30 % 52 % 1006 hPa 0,0 l/m 0,0 km/h (0 Bft) O-NO 65 -7,1 C 9,6 C
22.04.2011 02:41 10,0 C 9,8 C 30 % 52 % 1006 hPa 0,0 l/m 0,0 km/h (0 Bft) O-NO 65 -6,8 C 10,0 C
22.04.2011 03:11 10,3 C 10,1 C 32 % 51 % 1006 hPa 0,0 l/m 0,0 km/h (0 Bft) N 350 -5,7 C 10,3 C
22.04.2011 03:41 10,8 C 10,5 C 31 % 51 % 1006 hPa 0,0 l/m 0,0 km/h (0 Bft) N 350 -5,6 C 10,8 C
22.04.2011 04:11 10,9 C 10,7 C 31 % 51 % 1006 hPa 0,0 l/m 0,0 km/h (0 Bft) N 350 -5,5 C 10,9 C
22.04.2011 04:41 11,0 C 10,7 C 30 % 51 % 1006 hPa 0,0 l/m 0,0 km/h (0 Bft) N 350 -5,9 C 11,0 C
22.04.2011 05:11 10,8 C 10,4 C 30 % 51 % 1005 hPa 0,0 l/m 0,0 km/h (0 Bft) N 350 -6,1 C 10,8 C
22.04.2011 05:41 10,5 C 10,0 C 31 % 51 % 1005 hPa 0,0 l/m 0,0 km/h (0 Bft) N 350 -5,9 C 10,5 C
22.04.2011 06:11 10,1 C 9,5 C 30 % 52 % 1005 hPa 0,0 l/m 0,0 km/h (0 Bft) N 350 -6,7 C 10,1 C
22.04.2011 06:41 9,2 C 8,7 C 31 % 53 % 1005 hPa 0,0 l/m 0,0 km/h (0 Bft) N 350 -7,0 C 9,2 C
22.04.2011 07:11 8,8 C 8,2 C 32 % 55 % 1005 hPa 0,0 l/m 0,0 km/h (0 Bft) N 350 -7,0 C 8,8 C
22.04.2011 07:41 9,0 C 8,8 C 33 % 56 % 1006 hPa 0,0 l/m 0,0 km/h (0 Bft) N 350 -6,4 C 9,0 C
22.04.2011 08:11 9,8 C 10,3 C 34 % 55 % 1006 hPa 0,0 l/m 0,0 km/h (0 Bft) N-NW 345 -5,3 C 9,8 C
22.04.2011 08:41 10,9 C 12,4 C 33 % 48 % 1006 hPa 0,0 l/m 0,0 km/h (0 Bft) N-NW 345 -4,7 C 10,9 C
22.04.2011 09:11 11,9 C 15,5 C 30 % 35 % 1006 hPa 0,0 l/m 0,0 km/h (0 Bft) N-NW 345 -5,1 C 11,9 C
22.04.2011 09:41 12,9 C 16,3 C 28 % 35 % 1006 hPa 0,0 l/m 0,0 km/h (0 Bft) N-NW 345 -5,1 C 12,9 C
22.04.2011 10:11 14,8 C 22,8 C 24 % 22 % 1006 hPa 0,0 l/m 0,0 km/h (0 Bft) N-NW 340 -5,6 C 14,8 C
22.04.2011 10:41 17,6 C 29,3 C 20 % 20 % 1005 hPa 0,0 l/m 0,0 km/h (0 Bft) NW 325 -5,6 C 17,6 C
22.04.2011 11:11 19,5 C 33,5 C 20 % 20 % 1005 hPa 0,0 l/m 0,0 km/h (0 Bft) SO45 135 -4,0 C 19,5 C
22.04.2011 11:41 20,4 C 34,3 C 20 % 20 % 1005 hPa 0,0 l/m 0,0 km/h (0 Bft) N-NW 340 -3,3 C 20,4 C
22.04.2011 12:11 21,6 C 28,0 C 20 % 20 % 1005 hPa 0,0 l/m 0,0 km/h (0 Bft) N-NW 335 -2,3 C 21,6 C
22.04.2011 12:41 23,2 C 32,4 C 20 % 20 % 1005 hPa 0,0 l/m 0,0 km/h (0 Bft) N-NW 340 -1,0 C 23,2 C
22.04.2011 13:11 31,6 C 31,7 C 20 % 20 % 1004 hPa 0,0 l/m 0,0 km/h (0 Bft) N22.5 350 5,9 C 31,6 C
22.04.2011 13:41 29,7 C 29,6 C 20 % 20 % 1004 hPa 0,0 l/m 0,0 km/h (0 Bft) SO 130 4,3 C 29,7 C
22.04.2011 14:11 29,5 C 29,9 C 20 % 20 % 1004 hPa 0,0 l/m 0,0 km/h (0 Bft) NW22.5 320 4,2 C 29,5 C
22.04.2011 14:41 31,4 C 31,1 C 20 % 20 % 1004 hPa 0,0 l/m 0,0 km/h (0 Bft) SO 125 5,7 C 31,4 C
22.04.2011 15:11 31,5 C 34,8 C 20 % 20 % 1003 hPa 0,0 l/m 0,0 km/h (0 Bft) O-SO22.5 115 5,8 C 31,5 C
22.04.2011 15:41 30,5 C 33,8 C 20 % 20 % 1003 hPa 0,0 l/m 0,0 km/h (0 Bft) SO22.5 130 5,0 C 30,5 C
22.04.2011 16:11 31,5 C 32,9 C 20 % 20 % 1003 hPa 0,0 l/m 0,0 km/h (0 Bft) O-NO67.5 75 5,8 C 31,5 C
22.04.2011 16:41 35,5 C 29,6 C 20 % 20 % 1002 hPa 0,0 l/m 0,0 km/h (0 Bft) S-SO 160 9,1 C 35,5 C
22.04.2011 17:11 27,4 C 25,3 C 20 % 20 % 1003 hPa 0,0 l/m 0,0 km/h (0 Bft) N-NW 330 2,4 C 27,4 C
22.04.2011 17:41 29,3 C 25,6 C 20 % 20 % 1002 hPa 0,0 l/m 0,0 km/h (0 Bft) N-NW 340 4,0 C 29,3 C
22.04.2011 18:11 28,5 C 25,2 C 20 % 20 % 1002 hPa 0,0 l/m 0,0 km/h (0 Bft) W 260 3,3 C 28,5 C
22.04.2011 18:41 26,3 C 24,4 C 20 % 20 % 1002 hPa 0,0 l/m 0,0 km/h (0 Bft) NW22.5 320 1,5 C 26,3 C
22.04.2011 19:11 24,8 C 23,3 C 20 % 20 % 1002 hPa 0,0 l/m 0,0 km/h (0 Bft) N 355 0,3 C 24,8 C
22.04.2011 19:41 23,1 C 22,0 C 20 % 20 % 1002 hPa 0,0 l/m 0,0 km/h (0 Bft) N 355 -1,1 C 23,1 C
22.04.2011 20:11 20,5 C 19,8 C 20 % 20 % 1002 hPa 0,0 l/m 0,0 km/h (0 Bft) N-NO 15 -3,2 C 20,5 C
22.04.2011 20:41 18,3 C 17,7 C 20 % 22 % 1003 hPa 0,0 l/m 0,0 km/h (0 Bft) N-NO 15 -5,0 C 18,3 C
22.04.2011 21:11 16,6 C 15,7 C 20 % 26 % 1003 hPa 0,0 l/m 0,0 km/h (0 Bft) N 5 -6,4 C 16,6 C
22.04.2011 21:41 15,1 C 14,2 C 20 % 30 % 1004 hPa 0,0 l/m 0,0 km/h (0 Bft) N 5 -7,7 C 15,1 C
22.04.2011 22:11 13,9 C 13,2 C 20 % 36 % 1004 hPa 0,0 l/m 0,0 km/h (0 Bft) N 5 -8,7 C 13,9 C
22.04.2011 22:41 13,0 C 12,4 C 20 % 38 % 1004 hPa 0,0 l/m 0,0 km/h (0 Bft) N 5 -9,4 C 13,0 C
22.04.2011 23:11 12,4 C 11,5 C 20 % 41 % 1004 hPa 0,0 l/m 0,0 km/h (0 Bft) N 5 -9,9 C 12,4 C
22.04.2011 23:41 11,9 C 11,1 C 20 % 43 % 1003 hPa 0,0 l/m 0,0 km/h (0 Bft) N 5 -10,3 C 11,9 C
_ Min-Zeit 07:11 07:11 00:11 10:41 16:41 - 00:11 - - 00:41 07:11
Minimum _ 8,8 C 8,2 C 20 % 20 % 1002 hPa - 0,0 km/h (0 Bft) - - -11,6 C 8,8 C
_ Max-Zeit 16:41 15:11 08:11 07:41 00:11 00:11 00:11 - - 16:41 16:41
Maximum _ 35,5 C 34,8 C 34 % 56 % 1007 hPa 0,0 l/m 0,0 km/h
O-SO (0 Bft)
- - 9,1 C 35,5 C
Durchschnitt _ 17,9 C 19,0 C 24 % 34 % 1004 hPa #0,0 l/m 0,0 km/h (0 Bft) - - - -3,3 C 17,9 C
©2001-2010 Bettendroffer Claude